Time;durP1;ratioP1;P1;durP2;ratioP2;P2;SDS_P1;SDS_P2;PMS_P1;PMS_P2;Temp;Humidity;BMP_temperature;BMP_pressure;BME280_temperature;BME280_humidity;BME280_pressure;Samples;Min_cycle;Max_cycle;Signal;HPM_P1;HPM_P2
2022/12/04 00:00:47;;;;;;;9.40;2.15;;;;;;;;;;5056949;28;20712;-62
2022/12/04 00:03:13;;;;;;;16.10;2.70;;;;;;;;;;5058016;28;20045;-61
2022/12/04 00:05:40;;;;;;;4.90;1.88;;;;;;;;;;5052933;28;20082;-61
2022/12/04 00:08:07;;;;;;;8.25;2.05;;;;;;;;;;5055376;28;20044;-63
2022/12/04 00:10:33;;;;;;;7.07;2.28;;;;;;;;;;5055272;28;20193;-65
2022/12/04 00:13:00;;;;;;;3.53;1.58;;;;;;;;;;5072252;28;20544;-65
2022/12/04 00:15:26;;;;;;;3.88;1.60;;;;;;;;;;5054497;28;20044;-62
2022/12/04 00:17:54;;;;;;;7.18;1.60;;;;;;;;;;5056510;28;20609;-62
2022/12/04 00:20:21;;;;;;;4.80;1.77;;;;;;;;;;5055421;28;20131;-63
2022/12/04 00:22:48;;;;;;;16.90;2.40;;;;;;;;;;5053217;28;20159;-63
2022/12/04 00:25:16;;;;;;;3.40;1.50;;;;;;;;;;5054082;28;20235;-63
2022/12/04 00:27:44;;;;;;;3.10;1.30;;;;;;;;;;5055173;28;20170;-64
2022/12/04 00:30:11;;;;;;;10.10;1.60;;;;;;;;;;5068797;28;20726;-63
2022/12/04 00:32:39;;;;;;;3.63;1.42;;;;;;;;;;5028193;28;20036;-64
2022/12/04 00:35:05;;;;;;;4.93;1.50;;;;;;;;;;5045074;28;20036;-63
2022/12/04 00:37:32;;;;;;;5.25;1.70;;;;;;;;;;5039607;28;20779;-64
2022/12/04 00:39:59;;;;;;;3.05;1.50;;;;;;;;;;5034576;28;20040;-64
2022/12/04 00:42:26;;;;;;;4.47;1.95;;;;;;;;;;5036116;28;20075;-64
2022/12/04 00:44:52;;;;;;;3.70;1.35;;;;;;;;;;5038130;28;20036;-64
2022/12/04 00:47:19;;;;;;;4.68;1.52;;;;;;;;;;5035017;28;20049;-65
2022/12/04 00:49:45;;;;;;;10.52;1.80;;;;;;;;;;5048041;28;20040;-63
2022/12/04 00:52:12;;;;;;;5.18;1.77;;;;;;;;;;5037034;28;20040;-61
2022/12/04 00:54:39;;;;;;;3.78;1.30;;;;;;;;;;5042499;28;25048;-63
2022/12/04 00:57:05;;;;;;;3.30;1.33;;;;;;;;;;5034989;28;20032;-64
2022/12/04 00:59:32;;;;;;;6.38;1.73;;;;;;;;;;5035283;28;20049;-62
2022/12/04 01:01:58;;;;;;;4.28;1.40;;;;;;;;;;5036785;28;20034;-63
2022/12/04 01:04:25;;;;;;;7.15;1.45;;;;;;;;;;5041707;28;20208;-63
2022/12/04 01:06:51;;;;;;;8.07;1.58;;;;;;;;;;5034080;28;20053;-62
2022/12/04 01:09:18;;;;;;;4.75;1.65;;;;;;;;;;5017659;28;20065;-63
2022/12/04 01:11:45;;;;;;;6.95;1.77;;;;;;;;;;5015107;28;20128;-63
2022/12/04 01:14:12;;;;;;;4.40;1.98;;;;;;;;;;5017147;28;20041;-63
2022/12/04 01:16:39;;;;;;;10.85;1.90;;;;;;;;;;5016689;28;20486;-63
2022/12/04 01:19:07;;;;;;;6.53;2.17;;;;;;;;;;5017038;28;20388;-63
2022/12/04 01:21:33;;;;;;;10.88;2.00;;;;;;;;;;5013563;28;20144;-65
2022/12/04 01:24:00;;;;;;;11.80;2.30;;;;;;;;;;5018274;28;20115;-64
2022/12/04 01:26:27;;;;;;;6.90;1.80;;;;;;;;;;5018022;28;20057;-66
2022/12/04 01:28:53;;;;;;;9.00;2.05;;;;;;;;;;5015296;28;20037;-64
2022/12/04 01:31:22;;;;;;;7.88;1.92;;;;;;;;;;5014356;28;20100;-63
2022/12/04 01:34:08;;;;;;;4.55;1.67;;;;;;;;;;5031183;28;21819;-63
2022/12/04 01:36:35;;;;;;;3.03;1.35;;;;;;;;;;5030925;28;20032;-64
2022/12/04 01:39:01;;;;;;;2.03;0.82;;;;;;;;;;5024383;28;20172;-62
2022/12/04 01:41:29;;;;;;;3.67;1.50;;;;;;;;;;5032093;28;20037;-62
2022/12/04 01:44:14;;;;;;;4.80;1.27;;;;;;;;;;5033694;28;20037;-61
2022/12/04 01:46:41;;;;;;;5.95;1.48;;;;;;;;;;5032235;28;20049;-65
2022/12/04 01:49:10;;;;;;;6.05;1.80;;;;;;;;;;5038752;28;20041;-66
2022/12/04 01:51:39;;;;;;;6.80;1.23;;;;;;;;;;5043679;28;20041;-64
2022/12/04 01:54:08;;;;;;;2.20;0.93;;;;;;;;;;5046615;28;20036;-61
2022/12/04 01:56:42;;;;;;;5.05;1.75;;;;;;;;;;5053702;28;20024;-65
2022/12/04 01:59:09;;;;;;;3.67;1.30;;;;;;;;;;5055673;28;20083;-61
2022/12/04 02:01:38;;;;;;;3.72;1.55;;;;;;;;;;5041452;28;20119;-62
2022/12/04 02:04:05;;;;;;;4.30;1.33;;;;;;;;;;5056234;28;20036;-65
2022/12/04 02:06:32;;;;;;;4.13;1.40;;;;;;;;;;5056219;28;20514;-65
2022/12/04 02:08:58;;;;;;;5.30;1.17;;;;;;;;;;5056165;28;20163;-62
2022/12/04 02:11:36;;;;;;;3.45;1.30;;;;;;;;;;5040032;28;20098;-65
2022/12/04 02:14:09;;;;;;;4.00;1.08;;;;;;;;;;5018144;28;20045;-66
2022/12/04 02:16:38;;;;;;;9.77;1.38;;;;;;;;;;5028907;28;20755;-64
2022/12/04 02:19:30;;;;;;;4.95;1.33;;;;;;;;;;5020479;28;20045;-66
2022/12/04 02:21:59;;;;;;;3.85;1.13;;;;;;;;;;5026989;28;20770;-65
2022/12/04 02:24:52;;;;;;;4.20;1.35;;;;;;;;;;5018033;28;22286;-64
2022/12/04 02:27:32;;;;;;;3.47;1.30;;;;;;;;;;5027011;28;20158;-64
2022/12/04 02:30:04;;;;;;;3.22;1.27;;;;;;;;;;5026003;28;20025;-63
2022/12/04 02:32:43;;;;;;;7.22;1.27;;;;;;;;;;5036917;28;20037;-66
2022/12/04 02:35:16;;;;;;;5.15;1.30;;;;;;;;;;5037612;28;20042;-63
2022/12/04 02:37:47;;;;;;;3.37;1.60;;;;;;;;;;5037740;28;20374;-62
2022/12/04 02:40:20;;;;;;;9.50;1.60;;;;;;;;;;5036178;28;21331;-63
2022/12/04 02:43:07;;;;;;;3.95;1.10;;;;;;;;;;5038484;28;20775;-62
2022/12/04 02:45:40;;;;;;;8.80;2.47;;;;;;;;;;5037341;28;20075;-62
2022/12/04 02:48:07;;;;;;;4.15;1.50;;;;;;;;;;5039596;28;20106;-63
2022/12/04 02:50:36;;;;;;;2.53;1.30;;;;;;;;;;5035853;28;20029;-67
2022/12/04 02:53:07;;;;;;;4.47;1.45;;;;;;;;;;5037851;28;20076;-66
2022/12/04 02:56:04;;;;;;;8.43;1.50;;;;;;;;;;5052628;28;20045;-63
2022/12/04 02:58:40;;;;;;;10.48;1.00;;;;;;;;;;5036842;28;21400;-63
2022/12/04 03:01:18;;;;;;;3.55;1.40;;;;;;;;;;5037494;28;20047;-64
2022/12/04 03:03:49;;;;;;;4.07;1.17;;;;;;;;;;5039379;28;20025;-62
2022/12/04 03:06:17;;;;;;;6.55;1.13;;;;;;;;;;5040367;28;20134;-64
2022/12/04 03:08:46;;;;;;;2.47;0.88;;;;;;;;;;5041343;28;20087;-64
2022/12/04 03:11:13;;;;;;;2.95;1.08;;;;;;;;;;5036423;28;20056;-65
2022/12/04 03:13:52;;;;;;;3.33;1.25;;;;;;;;;;5038385;28;20041;-62
2022/12/04 03:16:20;;;;;;;2.72;1.15;;;;;;;;;;5041164;28;20374;-63
2022/12/04 03:19:07;;;;;;;2.85;1.20;;;;;;;;;;5037608;28;20169;-63
2022/12/04 03:21:37;;;;;;;5.47;1.65;;;;;;;;;;5033454;28;20037;-62
2022/12/04 03:24:36;;;;;;;3.83;1.63;;;;;;;;;;5039086;28;20047;-63
2022/12/04 03:27:03;;;;;;;2.95;1.40;;;;;;;;;;5003169;28;20057;-61
2022/12/04 03:29:39;;;;;;;3.28;1.35;;;;;;;;;;5031620;28;20555;-64
2022/12/04 03:32:10;;;;;;;8.73;1.77;;;;;;;;;;5040947;28;20587;-65
2022/12/04 03:34:46;;;;;;;2.58;1.15;;;;;;;;;;5037055;28;20120;-63
2022/12/04 03:37:15;;;;;;;4.15;1.80;;;;;;;;;;5023579;28;20041;-60
2022/12/04 03:40:02;;;;;;;2.35;1.08;;;;;;;;;;5040683;28;20501;-64
2022/12/04 03:42:47;;;;;;;8.32;1.38;;;;;;;;;;5039760;28;20040;-65
2022/12/04 03:45:22;;;;;;;3.50;1.35;;;;;;;;;;5025572;28;20037;-63
2022/12/04 03:48:11;;;;;;;3.72;1.50;;;;;;;;;;5016614;28;20054;-62
2022/12/04 03:50:41;;;;;;;3.97;1.67;;;;;;;;;;5038025;28;20047;-63
2022/12/04 03:53:14;;;;;;;5.35;1.40;;;;;;;;;;5017675;28;20059;-65
2022/12/04 03:55:45;;;;;;;6.47;2.10;;;;;;;;;;5016673;28;20052;-63
2022/12/04 03:58:15;;;;;;;6.15;2.05;;;;;;;;;;5049960;28;20429;-61
2022/12/04 04:00:42;;;;;;;6.30;1.75;;;;;;;;;;5014854;28;20045;-64
2022/12/04 04:03:18;;;;;;;6.07;1.83;;;;;;;;;;5017753;28;20390;-62
2022/12/04 04:05:46;;;;;;;3.20;1.30;;;;;;;;;;5011807;28;20128;-63
2022/12/04 04:08:25;;;;;;;6.45;2.42;;;;;;;;;;5016354;28;20533;-61
2022/12/04 04:10:53;;;;;;;2.97;1.10;;;;;;;;;;5019315;28;20200;-64
2022/12/04 04:24:42;;;;;;;7.38;1.80;;;;;;;;;;5016223;28;20056;-60
2022/12/04 04:27:08;;;;;;;5.00;1.80;;;;;;;;;;5017524;28;20459;-61
2022/12/04 04:29:35;;;;;;;5.05;2.10;;;;;;;;;;5048722;28;20045;-64
2022/12/04 04:32:02;;;;;;;4.63;2.00;;;;;;;;;;5034215;28;20033;-61
2022/12/04 04:34:28;;;;;;;8.73;1.98;;;;;;;;;;5017423;28;20034;-64
2022/12/04 04:37:01;;;;;;;8.05;1.90;;;;;;;;;;5016678;28;20046;-65
2022/12/04 04:39:27;;;;;;;5.07;2.08;;;;;;;;;;5016435;28;20498;-66
2022/12/04 04:41:57;;;;;;;6.28;1.70;;;;;;;;;;5019930;28;20503;-66
2022/12/04 04:44:34;;;;;;;3.90;1.77;;;;;;;;;;5014776;28;20046;-60
2022/12/04 04:47:03;;;;;;;5.22;2.25;;;;;;;;;;5030470;28;20055;-63
2022/12/04 04:49:32;;;;;;;7.30;2.20;;;;;;;;;;5032000;28;20045;-64
2022/12/04 04:51:59;;;;;;;12.70;2.00;;;;;;;;;;5045772;28;20111;-66
2022/12/04 04:54:26;;;;;;;9.15;2.25;;;;;;;;;;5028599;28;20060;-67
2022/12/04 04:56:53;;;;;;;9.65;2.00;;;;;;;;;;5024551;28;20037;-65
2022/12/04 04:59:20;;;;;;;4.75;1.70;;;;;;;;;;5014786;28;20115;-61
2022/12/04 05:01:46;;;;;;;15.88;2.03;;;;;;;;;;5043999;28;20029;-64
2022/12/04 05:04:13;;;;;;;4.57;1.98;;;;;;;;;;5014571;28;20048;-63
2022/12/04 05:06:40;;;;;;;9.82;2.15;;;;;;;;;;5024181;28;20136;-65
2022/12/04 05:09:06;;;;;;;4.47;1.50;;;;;;;;;;5016677;28;20142;-65
2022/12/04 05:11:33;;;;;;;3.40;1.05;;;;;;;;;;5014261;28;20059;-65
2022/12/04 05:14:00;;;;;;;4.65;1.13;;;;;;;;;;5016210;28;20573;-65
2022/12/04 05:16:26;;;;;;;2.92;0.98;;;;;;;;;;5013372;28;20086;-63
2022/12/04 05:21:40;;;;;;;4.22;1.30;;;;;;;;;;5014872;28;20064;-63
2022/12/04 05:24:07;;;;;;;5.05;1.55;;;;;;;;;;5024103;28;20044;-63
2022/12/04 05:26:33;;;;;;;5.20;1.52;;;;;;;;;;5029659;28;20422;-64
2022/12/04 05:29:00;;;;;;;2.97;1.38;;;;;;;;;;5011260;28;20132;-64
2022/12/04 05:31:27;;;;;;;3.67;1.30;;;;;;;;;;5041707;28;20453;-62
2022/12/04 05:33:53;;;;;;;5.07;1.40;;;;;;;;;;5016954;28;20044;-62
2022/12/04 05:36:21;;;;;;;3.80;1.50;;;;;;;;;;5047007;28;20041;-63
2022/12/04 05:38:48;;;;;;;3.83;1.42;;;;;;;;;;5016266;28;20041;-64
2022/12/04 05:41:15;;;;;;;3.42;1.10;;;;;;;;;;5022994;28;20064;-66
2022/12/04 05:43:41;;;;;;;2.42;0.90;;;;;;;;;;5025724;28;20281;-66
2022/12/04 05:46:09;;;;;;;2.80;0.90;;;;;;;;;;5017304;28;20132;-66
2022/12/04 05:48:36;;;;;;;3.10;0.80;;;;;;;;;;5023242;28;20040;-66
2022/12/04 05:51:09;;;;;;;3.72;0.98;;;;;;;;;;5025265;28;20068;-65
2022/12/04 05:53:36;;;;;;;1.70;0.75;;;;;;;;;;5018481;28;21330;-66
2022/12/04 05:56:03;;;;;;;7.32;0.88;;;;;;;;;;5014115;28;20037;-62
2022/12/04 05:58:30;;;;;;;1.30;0.70;;;;;;;;;;5013853;28;20045;-62
2022/12/04 06:00:57;;;;;;;2.90;1.17;;;;;;;;;;5012114;28;21700;-64
2022/12/04 06:03:23;;;;;;;3.00;1.05;;;;;;;;;;5014468;28;20116;-66
2022/12/04 06:05:50;;;;;;;4.35;1.08;;;;;;;;;;5014816;28;20045;-62
2022/12/04 06:08:16;;;;;;;2.85;1.00;;;;;;;;;;5014793;28;20796;-62
2022/12/04 06:10:43;;;;;;;6.80;1.05;;;;;;;;;;5013497;28;20162;-64
2022/12/04 06:13:09;;;;;;;2.35;0.90;;;;;;;;;;5017414;28;20130;-63
2022/12/04 06:15:37;;;;;;;1.55;0.70;;;;;;;;;;5012720;28;20038;-64
2022/12/04 06:18:04;;;;;;;3.28;1.00;;;;;;;;;;5014009;28;20053;-63
2022/12/04 06:20:31;;;;;;;2.47;0.70;;;;;;;;;;5011921;28;21754;-63
2022/12/04 06:22:57;;;;;;;1.95;0.70;;;;;;;;;;5012942;28;20044;-64
2022/12/04 06:25:24;;;;;;;4.05;1.00;;;;;;;;;;5010740;28;20116;-63
2022/12/04 06:27:51;;;;;;;2.25;0.70;;;;;;;;;;5013215;28;20080;-63
2022/12/04 06:30:18;;;;;;;3.92;0.70;;;;;;;;;;5012540;28;20392;-64
2022/12/04 06:32:44;;;;;;;2.25;0.82;;;;;;;;;;5038685;28;20128;-65
2022/12/04 06:35:11;;;;;;;1.90;0.65;;;;;;;;;;5019692;28;20057;-63
2022/12/04 06:37:37;;;;;;;2.13;0.70;;;;;;;;;;5015956;28;21602;-64
2022/12/04 06:40:04;;;;;;;2.58;0.73;;;;;;;;;;5013707;28;20209;-64
2022/12/04 06:42:31;;;;;;;1.90;0.68;;;;;;;;;;5013424;28;20139;-65
2022/12/04 06:44:57;;;;;;;3.13;0.93;;;;;;;;;;5017079;28;20045;-63
2022/12/04 06:47:24;;;;;;;1.55;0.60;;;;;;;;;;5019741;28;20521;-63
2022/12/04 06:49:50;;;;;;;1.95;0.73;;;;;;;;;;5019099;28;20036;-64
2022/12/04 06:52:17;;;;;;;2.58;1.00;;;;;;;;;;5017471;28;20047;-64
2022/12/04 06:54:44;;;;;;;2.05;0.73;;;;;;;;;;5022222;28;20041;-64
2022/12/04 06:57:10;;;;;;;1.45;0.60;;;;;;;;;;5016870;28;20080;-64
2022/12/04 06:59:37;;;;;;;2.15;0.65;;;;;;;;;;5016162;28;20033;-65
2022/12/04 07:02:04;;;;;;;1.45;0.60;;;;;;;;;;5019198;28;20033;-62
2022/12/04 07:04:30;;;;;;;2.55;0.80;;;;;;;;;;5020034;28;20073;-64
2022/12/04 07:06:57;;;;;;;1.88;0.73;;;;;;;;;;5020268;28;20088;-65
2022/12/04 07:09:23;;;;;;;3.28;1.00;;;;;;;;;;5017360;28;20064;-64
2022/12/04 07:11:51;;;;;;;2.10;0.73;;;;;;;;;;5026415;28;20051;-64
2022/12/04 07:14:18;;;;;;;7.28;1.00;;;;;;;;;;5022848;28;20063;-66
2022/12/04 07:16:45;;;;;;;1.80;0.70;;;;;;;;;;5029653;28;20044;-64
2022/12/04 07:19:13;;;;;;;1.63;0.65;;;;;;;;;;5033923;28;20041;-65
2022/12/04 07:21:39;;;;;;;3.45;0.73;;;;;;;;;;5017721;28;20487;-63
2022/12/04 07:24:06;;;;;;;2.08;0.65;;;;;;;;;;5018842;28;20063;-64
2022/12/04 07:26:33;;;;;;;1.90;0.70;;;;;;;;;;5015722;28;20079;-63
2022/12/04 07:28:59;;;;;;;1.98;0.68;;;;;;;;;;5028820;28;20385;-64
2022/12/04 07:31:27;;;;;;;1.88;0.65;;;;;;;;;;5029584;28;20406;-63
2022/12/04 07:33:54;;;;;;;6.28;0.80;;;;;;;;;;5025810;28;20049;-63
2022/12/04 07:36:21;;;;;;;1.42;0.50;;;;;;;;;;5013627;28;20041;-64
2022/12/04 07:38:48;;;;;;;3.35;0.70;;;;;;;;;;5016727;28;20046;-66
2022/12/04 07:41:14;;;;;;;2.33;0.75;;;;;;;;;;5018010;28;20637;-64
2022/12/04 07:43:41;;;;;;;3.05;0.90;;;;;;;;;;5049955;28;20041;-64
2022/12/04 07:46:11;;;;;;;3.67;0.60;;;;;;;;;;5015514;28;20053;-65
2022/12/04 07:48:37;;;;;;;1.77;0.60;;;;;;;;;;5021603;28;20033;-64
2022/12/04 07:51:24;;;;;;;1.92;0.70;;;;;;;;;;5018801;28;20033;-64
2022/12/04 07:53:52;;;;;;;4.20;0.85;;;;;;;;;;5017919;28;20091;-65
2022/12/04 07:56:19;;;;;;;4.95;0.82;;;;;;;;;;5015339;28;20063;-66
2022/12/04 07:58:46;;;;;;;1.70;0.60;;;;;;;;;;5014938;28;20037;-64
2022/12/04 08:01:16;;;;;;;3.45;0.80;;;;;;;;;;5017755;28;20042;-64
2022/12/04 08:03:44;;;;;;;2.33;0.77;;;;;;;;;;5034079;28;20037;-67
2022/12/04 08:06:10;;;;;;;4.95;0.80;;;;;;;;;;5034450;28;20562;-65
2022/12/04 08:08:37;;;;;;;1.58;0.65;;;;;;;;;;5049973;28;20398;-64
2022/12/04 08:11:07;;;;;;;5.05;0.80;;;;;;;;;;5022393;28;20128;-64
2022/12/04 08:13:34;;;;;;;1.35;0.60;;;;;;;;;;5018328;28;20041;-66
2022/12/04 08:16:02;;;;;;;1.83;0.63;;;;;;;;;;5019697;28;20034;-64
2022/12/04 08:18:28;;;;;;;3.85;0.80;;;;;;;;;;5016804;28;20092;-63
2022/12/04 08:21:02;;;;;;;1.77;0.55;;;;;;;;;;5018674;28;20120;-63
2022/12/04 08:23:28;;;;;;;6.93;0.65;;;;;;;;;;5029567;28;20391;-63
2022/12/04 08:25:58;;;;;;;4.13;0.63;;;;;;;;;;5023203;28;20062;-64
2022/12/04 08:28:24;;;;;;;2.03;0.50;;;;;;;;;;5013064;28;20032;-64
2022/12/04 08:30:51;;;;;;;1.95;0.60;;;;;;;;;;5014390;28;20038;-64
2022/12/04 08:33:17;;;;;;;1.83;0.63;;;;;;;;;;5015239;28;20045;-64
2022/12/04 08:35:44;;;;;;;1.25;0.47;;;;;;;;;;5030396;28;20099;-63
2022/12/04 08:38:10;;;;;;;3.00;0.73;;;;;;;;;;5022304;28;20104;-65
2022/12/04 08:40:37;;;;;;;0.40;0.30;;;;;;;;;;5014569;28;20036;-63
2022/12/04 08:43:04;;;;;;;1.25;0.57;;;;;;;;;;5018697;28;20034;-62
2022/12/04 08:45:30;;;;;;;2.88;0.60;;;;;;;;;;5037595;28;20962;-64
2022/12/04 08:47:57;;;;;;;2.17;0.70;;;;;;;;;;5043490;28;20057;-64
2022/12/04 08:50:23;;;;;;;1.80;0.60;;;;;;;;;;5006527;28;20037;-64
2022/12/04 08:52:50;;;;;;;1.95;0.65;;;;;;;;;;5016870;28;20106;-66
2022/12/04 08:55:17;;;;;;;1.58;0.60;;;;;;;;;;5015967;28;20033;-64
2022/12/04 08:57:43;;;;;;;1.58;0.55;;;;;;;;;;5014069;28;20168;-64
2022/12/04 09:00:11;;;;;;;1.48;0.57;;;;;;;;;;5014766;28;20514;-64
2022/12/04 09:02:38;;;;;;;1.92;0.50;;;;;;;;;;5013879;28;20057;-64
2022/12/04 09:05:05;;;;;;;1.92;0.60;;;;;;;;;;5014621;28;20437;-64
2022/12/04 09:07:31;;;;;;;3.30;0.70;;;;;;;;;;5013965;28;20045;-65
2022/12/04 09:09:58;;;;;;;2.65;0.80;;;;;;;;;;5013478;28;20132;-64
2022/12/04 09:12:25;;;;;;;2.05;0.60;;;;;;;;;;5023055;28;20048;-65
2022/12/04 09:14:51;;;;;;;1.13;0.50;;;;;;;;;;5013073;28;20162;-64
2022/12/04 09:17:18;;;;;;;2.22;0.57;;;;;;;;;;5015444;28;20126;-64
2022/12/04 09:19:44;;;;;;;2.83;0.70;;;;;;;;;;5030410;28;20041;-65
2022/12/04 09:22:11;;;;;;;1.50;0.50;;;;;;;;;;5032906;28;20132;-64
2022/12/04 09:24:38;;;;;;;1.33;0.60;;;;;;;;;;5031886;28;21808;-65
2022/12/04 09:27:04;;;;;;;1.77;0.60;;;;;;;;;;5045958;28;20060;-63
2022/12/04 09:29:33;;;;;;;2.10;0.68;;;;;;;;;;5015770;28;20041;-63
2022/12/04 09:31:59;;;;;;;1.63;0.50;;;;;;;;;;5040719;28;20040;-63
2022/12/04 09:34:26;;;;;;;0.63;0.40;;;;;;;;;;5015662;28;20038;-64
2022/12/04 09:36:53;;;;;;;3.05;0.57;;;;;;;;;;5031415;28;20037;-63
2022/12/04 09:39:19;;;;;;;2.17;0.70;;;;;;;;;;5036211;28;20048;-63
2022/12/04 09:42:12;;;;;;;2.30;0.50;;;;;;;;;;5018280;28;20477;-65
2022/12/04 09:44:38;;;;;;;1.88;0.75;;;;;;;;;;5034754;28;20038;-65
2022/12/04 09:47:17;;;;;;;2.38;0.80;;;;;;;;;;5014443;28;20049;-63
2022/12/04 09:49:47;;;;;;;2.17;0.60;;;;;;;;;;5034434;28;20441;-63
2022/12/04 09:52:33;;;;;;;3.03;0.50;;;;;;;;;;5014877;28;20084;-63
2022/12/04 09:55:00;;;;;;;1.80;0.52;;;;;;;;;;5015910;28;20056;-63
2022/12/04 09:57:29;;;;;;;1.85;0.50;;;;;;;;;;5012727;28;20042;-64
2022/12/04 09:59:56;;;;;;;2.40;0.68;;;;;;;;;;5013603;28;20045;-65
2022/12/04 10:02:25;;;;;;;2.50;0.60;;;;;;;;;;5016144;28;20068;-65
2022/12/04 10:04:52;;;;;;;1.77;0.63;;;;;;;;;;5014759;28;20046;-68
2022/12/04 10:07:37;;;;;;;2.65;0.70;;;;;;;;;;5013506;28;20508;-66
2022/12/04 10:10:08;;;;;;;2.80;0.68;;;;;;;;;;5045849;28;20037;-63
2022/12/04 10:12:49;;;;;;;1.92;0.68;;;;;;;;;;5052335;28;20041;-63
2022/12/04 10:15:34;;;;;;;1.73;0.57;;;;;;;;;;5054580;28;20044;-63
2022/12/04 10:18:09;;;;;;;0.98;0.30;;;;;;;;;;5053135;28;20121;-64
2022/12/04 10:20:53;;;;;;;1.75;0.40;;;;;;;;;;5055948;28;20492;-64
2022/12/04 10:23:38;;;;;;;8.20;0.70;;;;;;;;;;5058157;28;20417;-64
2022/12/04 10:26:09;;;;;;;16.15;0.80;;;;;;;;;;5056285;28;20056;-64
2022/12/04 10:28:41;;;;;;;1.27;0.40;;;;;;;;;;5057507;28;20032;-63
2022/12/04 10:31:11;;;;;;;5.43;0.52;;;;;;;;;;5058192;28;20118;-65
2022/12/04 10:33:41;;;;;;;2.20;0.52;;;;;;;;;;5055121;28;20171;-64
2022/12/04 10:36:18;;;;;;;1.63;0.60;;;;;;;;;;5058146;28;20543;-64
2022/12/04 10:38:53;;;;;;;2.67;0.60;;;;;;;;;;5056308;28;20040;-64
2022/12/04 10:41:35;;;;;;;1.27;0.50;;;;;;;;;;5057348;28;20654;-63
2022/12/04 10:44:01;;;;;;;1.58;0.50;;;;;;;;;;5057653;28;20040;-63
2022/12/04 10:46:29;;;;;;;2.47;0.75;;;;;;;;;;5056076;28;20241;-64
2022/12/04 10:49:06;;;;;;;2.80;0.80;;;;;;;;;;5023825;28;20444;-64
2022/12/04 10:51:40;;;;;;;1.33;0.45;;;;;;;;;;5019750;28;20090;-64
2022/12/04 10:54:21;;;;;;;2.05;0.60;;;;;;;;;;5018631;28;20080;-63
2022/12/04 10:56:52;;;;;;;1.55;0.50;;;;;;;;;;5028910;28;20076;-63
2022/12/04 10:59:18;;;;;;;3.47;0.77;;;;;;;;;;5049589;28;20601;-64
2022/12/04 11:01:45;;;;;;;1.27;0.50;;;;;;;;;;5019042;28;20064;-64
2022/12/04 11:04:21;;;;;;;2.60;0.60;;;;;;;;;;5017468;28;20052;-64
2022/12/04 11:06:49;;;;;;;1.67;0.60;;;;;;;;;;5016345;28;20535;-63
2022/12/04 11:09:24;;;;;;;2.63;0.65;;;;;;;;;;5016037;28;20038;-64
2022/12/04 11:11:51;;;;;;;3.55;0.63;;;;;;;;;;5027725;28;20061;-63
2022/12/04 11:14:22;;;;;;;2.08;0.57;;;;;;;;;;5016557;28;20045;-64
2022/12/04 11:16:50;;;;;;;4.13;0.70;;;;;;;;;;5020270;28;20045;-65
2022/12/04 11:19:19;;;;;;;3.30;0.60;;;;;;;;;;5020966;28;20125;-65
2022/12/04 11:21:45;;;;;;;1.77;0.50;;;;;;;;;;5016082;28;21806;-64
2022/12/04 11:24:29;;;;;;;0.93;0.43;;;;;;;;;;5018896;28;20053;-64
2022/12/04 11:26:56;;;;;;;1.83;0.65;;;;;;;;;;5021035;28;20103;-67
2022/12/04 11:29:28;;;;;;;2.65;0.43;;;;;;;;;;5018626;28;20573;-64
2022/12/04 11:31:56;;;;;;;2.67;0.60;;;;;;;;;;5036469;28;21740;-65
2022/12/04 11:34:24;;;;;;;1.75;0.60;;;;;;;;;;5037213;28;20045;-64
2022/12/04 11:36:53;;;;;;;1.67;0.60;;;;;;;;;;5037161;28;20045;-66
2022/12/04 11:39:22;;;;;;;1.70;0.60;;;;;;;;;;5043006;28;20049;-66
2022/12/04 11:41:58;;;;;;;1.35;0.50;;;;;;;;;;5031932;28;20045;-65
2022/12/04 11:44:26;;;;;;;2.22;0.68;;;;;;;;;;5036618;28;20085;-66
2022/12/04 11:46:57;;;;;;;2.03;0.60;;;;;;;;;;5036042;28;20056;-65
2022/12/04 11:49:24;;;;;;;1.73;0.57;;;;;;;;;;5030027;28;20132;-64
2022/12/04 11:51:58;;;;;;;1.17;0.47;;;;;;;;;;5018430;28;20045;-64
2022/12/04 11:54:29;;;;;;;1.70;0.50;;;;;;;;;;5016962;28;20052;-64
2022/12/04 11:57:14;;;;;;;1.50;0.57;;;;;;;;;;5017238;28;20166;-63
2022/12/04 11:59:48;;;;;;;2.65;0.68;;;;;;;;;;5016796;28;20041;-63
2022/12/04 12:02:27;;;;;;;1.52;0.50;;;;;;;;;;5018326;28;20538;-63
2022/12/04 12:04:56;;;;;;;1.20;0.50;;;;;;;;;;5024769;28;20136;-63
2022/12/04 12:07:29;;;;;;;1.38;0.57;;;;;;;;;;5015356;28;20046;-66
2022/12/04 12:10:04;;;;;;;2.47;0.63;;;;;;;;;;5016175;28;20041;-64
2022/12/04 12:12:51;;;;;;;1.02;0.43;;;;;;;;;;5046667;28;20092;-65
2022/12/04 12:15:24;;;;;;;1.67;0.60;;;;;;;;;;5015417;28;20037;-66
2022/12/04 12:17:59;;;;;;;3.92;0.50;;;;;;;;;;5023541;28;20038;-62
2022/12/04 12:20:32;;;;;;;2.17;0.60;;;;;;;;;;5014985;28;20115;-64
2022/12/04 12:23:16;;;;;;;1.63;0.60;;;;;;;;;;5017204;28;20048;-64
2022/12/04 12:25:46;;;;;;;1.58;0.50;;;;;;;;;;5032557;28;20495;-65
2022/12/04 12:28:27;;;;;;;1.70;0.60;;;;;;;;;;5032768;28;20425;-65
2022/12/04 12:31:12;;;;;;;1.77;0.50;;;;;;;;;;5029131;28;20046;-64
2022/12/04 12:33:43;;;;;;;1.92;0.60;;;;;;;;;;5034874;28;20127;-64
2022/12/04 12:36:10;;;;;;;3.08;0.63;;;;;;;;;;5017167;28;20049;-64
2022/12/04 12:39:01;;;;;;;1.80;0.60;;;;;;;;;;5014832;28;20041;-64
2022/12/04 12:41:35;;;;;;;1.20;0.40;;;;;;;;;;5016697;28;20045;-63
2022/12/04 12:44:07;;;;;;;2.95;0.60;;;;;;;;;;5016050;28;20041;-63
2022/12/04 12:46:54;;;;;;;2.13;0.57;;;;;;;;;;5015381;28;20103;-63
2022/12/04 12:49:20;;;;;;;1.02;0.45;;;;;;;;;;5015981;28;20136;-64
2022/12/04 12:51:50;;;;;;;2.33;0.70;;;;;;;;;;5016743;28;20052;-64
2022/12/04 12:54:35;;;;;;;3.20;0.65;;;;;;;;;;5015053;28;20052;-64
2022/12/04 12:57:25;;;;;;;1.80;0.60;;;;;;;;;;5016092;28;20092;-64
2022/12/04 13:00:00;;;;;;;4.20;1.15;;;;;;;;;;5034399;28;20088;-64
2022/12/04 13:02:33;;;;;;;2.90;0.80;;;;;;;;;;5016154;28;20045;-63
2022/12/04 13:05:10;;;;;;;4.47;1.10;;;;;;;;;;5015110;28;20048;-62
2022/12/04 13:07:39;;;;;;;4.93;2.45;;;;;;;;;;5017347;28;20115;-64
2022/12/04 13:10:19;;;;;;;6.65;2.28;;;;;;;;;;5017404;28;20679;-65
2022/12/04 13:12:54;;;;;;;6.20;1.90;;;;;;;;;;5023308;28;20123;-64
2022/12/04 13:15:23;;;;;;;12.75;5.38;;;;;;;;;;5024784;28;20069;-63
2022/12/04 13:17:51;;;;;;;9.35;4.20;;;;;;;;;;5015908;28;20040;-64
2022/12/04 13:20:30;;;;;;;7.22;2.20;;;;;;;;;;5014760;28;20041;-65
2022/12/04 13:23:15;;;;;;;2.60;0.65;;;;;;;;;;5013594;28;20048;-63
2022/12/04 13:25:54;;;;;;;6.40;0.95;;;;;;;;;;5015958;28;20099;-66
2022/12/04 13:28:24;;;;;;;10.38;4.47;;;;;;;;;;5015039;28;20815;-63
2022/12/04 13:30:59;;;;;;;5.70;2.35;;;;;;;;;;5016915;28;20072;-66
2022/12/04 13:33:44;;;;;;;11.27;1.35;;;;;;;;;;5017363;28;20048;-66
2022/12/04 13:36:18;;;;;;;3.95;1.10;;;;;;;;;;5014397;28;20041;-66
2022/12/04 13:38:51;;;;;;;6.32;1.48;;;;;;;;;;5015671;28;20052;-65
2022/12/04 13:41:19;;;;;;;6.80;1.83;;;;;;;;;;5014543;28;20125;-65
2022/12/04 13:43:48;;;;;;;3.92;1.23;;;;;;;;;;5025243;28;20052;-64
2022/12/04 13:46:20;;;;;;;3.55;1.35;;;;;;;;;;5015891;28;20056;-65
2022/12/04 13:48:47;;;;;;;5.18;1.70;;;;;;;;;;5012695;28;21023;-65
2022/12/04 13:51:16;;;;;;;9.63;2.38;;;;;;;;;;5016397;28;20041;-63
2022/12/04 13:53:43;;;;;;;5.15;1.50;;;;;;;;;;5023314;28;20102;-65
2022/12/04 13:56:26;;;;;;;3.72;1.27;;;;;;;;;;5019834;28;20502;-63
2022/12/04 13:59:04;;;;;;;7.75;1.67;;;;;;;;;;5029305;28;20076;-63
2022/12/04 14:01:40;;;;;;;5.00;1.35;;;;;;;;;;5018594;28;20127;-64
2022/12/04 14:04:07;;;;;;;2.72;0.85;;;;;;;;;;5022237;28;20041;-64
2022/12/04 14:06:36;;;;;;;3.80;1.08;;;;;;;;;;5021687;28;20067;-63
2022/12/04 14:09:05;;;;;;;6.40;1.58;;;;;;;;;;5019212;28;21985;-64
2022/12/04 14:11:41;;;;;;;5.80;1.00;;;;;;;;;;5019170;28;20041;-65
2022/12/04 14:14:20;;;;;;;2.28;0.95;;;;;;;;;;5016581;28;20041;-64
2022/12/04 14:16:48;;;;;;;2.13;0.60;;;;;;;;;;5029028;28;20446;-65
2022/12/04 14:19:36;;;;;;;3.25;0.73;;;;;;;;;;5020575;28;20041;-67
2022/12/04 14:22:03;;;;;;;2.58;0.68;;;;;;;;;;5027085;28;20068;-65
2022/12/04 14:24:29;;;;;;;1.92;0.70;;;;;;;;;;5018035;28;20029;-64
2022/12/04 14:26:56;;;;;;;3.50;0.77;;;;;;;;;;5018671;28;20053;-65
2022/12/04 14:29:34;;;;;;;2.03;0.70;;;;;;;;;;5018932;28;21303;-64
2022/12/04 14:32:06;;;;;;;1.63;0.50;;;;;;;;;;5020207;28;20045;-65
2022/12/04 14:34:35;;;;;;;1.02;0.47;;;;;;;;;;5037175;28;20051;-65
2022/12/04 14:37:02;;;;;;;2.80;0.60;;;;;;;;;;5017588;28;20042;-65
2022/12/04 14:39:33;;;;;;;1.98;0.60;;;;;;;;;;5020150;28;20098;-64
2022/12/04 14:42:05;;;;;;;1.40;0.55;;;;;;;;;;5020306;28;20046;-64
2022/12/04 14:44:32;;;;;;;1.90;0.70;;;;;;;;;;5032921;28;20044;-65
2022/12/04 14:47:19;;;;;;;1.95;0.70;;;;;;;;;;5044773;28;20056;-65
2022/12/04 14:50:05;;;;;;;4.70;0.68;;;;;;;;;;5020565;28;20044;-64
2022/12/04 14:52:40;;;;;;;2.75;0.40;;;;;;;;;;5019919;28;20045;-65
2022/12/04 14:55:15;;;;;;;2.15;0.70;;;;;;;;;;5022589;28;20144;-65
2022/12/04 14:57:49;;;;;;;2.03;0.50;;;;;;;;;;5025274;28;20045;-64
2022/12/04 15:00:18;;;;;;;1.63;0.52;;;;;;;;;;5020428;28;20046;-65
2022/12/04 15:02:46;;;;;;;1.38;0.50;;;;;;;;;;5027845;28;20129;-64
2022/12/04 15:05:19;;;;;;;1.00;0.50;;;;;;;;;;5023342;28;20164;-65
2022/12/04 15:07:50;;;;;;;0.85;0.40;;;;;;;;;;5040713;28;20134;-66
2022/12/04 15:13:07;;;;;;;2.10;0.60;;;;;;;;;;5042277;28;20821;-65
2022/12/04 15:15:34;;;;;;;1.17;0.52;;;;;;;;;;5043684;28;20082;-65
2022/12/04 15:18:04;;;;;;;1.08;0.40;;;;;;;;;;5027284;28;20115;-66
2022/12/04 15:20:33;;;;;;;1.08;0.38;;;;;;;;;;5019844;28;20076;-65